| Date | Time | Temp. (oF) | Dew Point (oF) | Rel. Hum. (%) | Press. (in.) | Wind Dir. | Wind Speed (mph) | Hourly Rainfall (in.) |
|
|---|---|---|---|---|---|---|---|---|---|
| 1 | 04/03 | 00:00 | 44 | 26 | 51 | 29.95 | NE | 1 | 0.00 |
| 2 | 04/02 | 23:00 | 44 | 24 | 46 | 29.93 | NNE | 3 | 0.00 |
| 3 | 04/02 | 22:00 | 49 | 23 | 36 | 29.92 | NNE | 4 | 0.00 |
| 4 | 04/02 | 21:00 | 51 | 22 | 33 | 29.90 | NNE | 7 | 0.00 |
| 5 | 04/02 | 20:00 | 53 | 24 | 33 | 29.86 | NNE | 3 | 0.00 |
| 6 | 04/02 | 19:00 | 56 | 23 | 28 | 29.84 | NNE | 6 | 0.00 |
| 7 | 04/02 | 18:00 | 57 | 23 | 28 | 29.82 | N | 7 | 0.00 |
| 8 | 04/02 | 17:00 | 57 | 28 | 34 | 29.82 | WNW | 10 | 0.00 |
| 9 | 04/02 | 16:00 | 56 | 29 | 36 | 29.83 | NNE | 10 | 0.00 |
| 10 | 04/02 | 15:00 | 55 | 30 | 40 | 29.86 | WNW | 12 | 0.00 |
| 11 | 04/02 | 14:00 | 53 | 29 | 41 | 29.88 | N | 10 | 0.00 |
| 12 | 04/02 | 13:00 | 51 | 30 | 45 | 29.89 | W | 9 | 0.00 |
| 13 | 04/02 | 12:00 | 49 | 32 | 53 | 29.90 | W | 8 | 0.00 |
| 14 | 04/02 | 11:00 | 45 | 29 | 55 | 29.89 | NE | 24 | 0.00 |
| 15 | 04/02 | 10:00 | 43 | 30 | 60 | 29.88 | NNE | 13 | 0.00 |
| 16 | 04/02 | 09:00 | 42 | 31 | 66 | 29.86 | NNE | 8 | 0.00 |
| 17 | 04/02 | 08:00 | 41 | 33 | 74 | 29.82 | NE | 6 | 0.00 |
| 18 | 04/02 | 07:00 | 40 | 34 | 81 | 29.79 | NE | 3 | 0.00 |
| 19 | 04/02 | 06:00 | 41 | 36 | 83 | 29.76 | N | 4 | 0.00 |
| 20 | 04/02 | 05:00 | 41 | 36 | 84 | 29.73 | NNE | 9 | 0.00 |
| 21 | 04/02 | 04:00 | 42 | 39 | 91 | 29.70 | NE | 13 | 0.00 |
| 22 | 04/02 | 03:00 | 46 | 45 | 98 | 29.66 | N | 11 | 0.00 |
| 23 | 04/02 | 02:00 | 48 | 48 | 100 | 29.63 | N | 4 | 0.01 |
| 24 | 04/02 | 01:00 | 48 | 48 | 100 | 29.61 | W | 1 | 0.06 |